createdAt,value
2022-12-18T00:01:04.466Z,32.61
2022-12-18T00:03:31.163Z,32.46
2022-12-18T00:08:55.193Z,32.16
2022-12-18T00:22:37.952Z,32.31
2022-12-18T00:25:08.791Z,32.09
2022-12-18T00:27:44.059Z,32.04
2022-12-18T00:30:18.148Z,30.75
2022-12-18T00:32:52.707Z,31.12
2022-12-18T00:35:22.101Z,31.11
2022-12-18T00:37:49.266Z,30.24
2022-12-18T00:40:17.739Z,29.50
2022-12-18T00:42:45.422Z,30.83
2022-12-18T00:45:13.372Z,30.25
2022-12-18T00:50:17.726Z,30.74
2022-12-18T00:52:45.691Z,30.07
2022-12-18T00:55:13.350Z,29.40
2022-12-18T00:57:40.021Z,29.87
2022-12-18T01:00:07.406Z,30.34
2022-12-18T01:02:34.733Z,31.83
2022-12-18T01:05:01.809Z,32.61
2022-12-18T01:07:28.789Z,32.07
2022-12-18T01:09:58.251Z,31.45
2022-12-18T01:12:25.101Z,32.14
2022-12-18T01:14:51.965Z,32.31
2022-12-18T01:17:19.519Z,31.96
2022-12-18T01:19:46.141Z,31.50
2022-12-18T01:22:14.626Z,31.70
2022-12-18T01:24:41.495Z,32.94
2022-12-18T01:27:09.024Z,31.14
2022-12-18T01:29:38.106Z,30.90
2022-12-18T01:32:04.976Z,32.12
2022-12-18T01:34:31.597Z,32.26
2022-12-18T01:36:58.466Z,32.45
2022-12-18T01:39:25.148Z,34.70
2022-12-18T01:44:54.767Z,33.55
2022-12-18T01:47:22.269Z,33.12
2022-12-18T01:49:49.326Z,33.61
2022-12-18T01:52:16.197Z,33.94
2022-12-18T01:54:43.091Z,34.09
2022-12-18T01:57:13.223Z,33.15
2022-12-18T01:59:39.884Z,34.02
2022-12-18T02:02:08.112Z,33.37
2022-12-18T02:04:35.221Z,32.24
2022-12-18T02:07:33.930Z,31.53
2022-12-18T02:09:51.796Z,33.01
2022-12-18T02:12:21.401Z,33.47
2022-12-18T02:14:47.999Z,33.56
2022-12-18T02:17:15.725Z,33.36
2022-12-18T02:19:50.591Z,34.64
2022-12-18T02:22:19.421Z,33.97
2022-12-18T02:24:47.145Z,31.54
2022-12-18T02:27:14.258Z,32.54
2022-12-18T02:29:41.130Z,33.42
2022-12-18T02:32:07.857Z,33.50
2022-12-18T02:34:36.333Z,35.81
2022-12-18T02:37:02.884Z,34.29
2022-12-18T02:39:29.546Z,33.37
2022-12-18T02:41:56.598Z,33.17
2022-12-18T02:44:24.231Z,32.83
2022-12-18T02:46:51.174Z,33.55
2022-12-18T02:49:18.117Z,32.91
2022-12-18T02:51:48.197Z,32.58
2022-12-18T02:54:14.993Z,32.85
2022-12-18T02:56:42.298Z,32.03
2022-12-18T02:59:09.146Z,32.21
2022-12-18T03:01:37.278Z,32.96
2022-12-18T03:06:58.094Z,32.88
2022-12-18T03:09:26.079Z,32.79
2022-12-18T03:15:05.822Z,33.22
2022-12-18T03:17:33.184Z,30.87
2022-12-18T03:20:00.888Z,31.67
2022-12-18T03:25:43.900Z,33.11
2022-12-18T03:28:11.322Z,32.82
2022-12-18T03:30:38.061Z,33.22
2022-12-18T03:33:05.730Z,32.04
2022-12-18T03:35:40.040Z,34.00
2022-12-18T03:38:06.935Z,34.26
2022-12-18T03:40:33.559Z,34.12
2022-12-18T03:43:00.179Z,34.11
2022-12-18T03:45:27.077Z,34.57
2022-12-18T03:47:54.125Z,34.84
2022-12-18T03:50:22.362Z,36.12
2022-12-18T03:52:49.213Z,35.06
2022-12-18T03:55:16.799Z,35.26
2022-12-18T03:57:44.131Z,34.08
2022-12-18T04:00:13.952Z,35.67
2022-12-18T04:02:40.807Z,33.97
2022-12-18T04:05:07.684Z,34.05
2022-12-18T04:07:34.521Z,32.83
2022-12-18T04:10:03.351Z,34.45
2022-12-18T04:12:34.244Z,32.35
2022-12-18T04:15:13.158Z,33.36
2022-12-18T04:18:00.529Z,33.66
2022-12-18T04:20:27.132Z,33.84
2022-12-18T04:25:41.330Z,33.59
2022-12-18T04:28:08.231Z,34.90
2022-12-18T04:30:34.866Z,34.12
2022-12-18T04:33:02.663Z,33.67
2022-12-18T04:38:26.330Z,35.78
2022-12-18T04:40:53.909Z,34.36
2022-12-18T04:43:24.590Z,34.41
2022-12-18T04:45:51.154Z,33.99
2022-12-18T04:48:17.821Z,34.65
2022-12-18T04:50:47.764Z,33.65
2022-12-18T04:53:14.837Z,34.75
2022-12-18T04:55:41.707Z,33.82
2022-12-18T04:58:10.013Z,34.45
2022-12-18T05:00:36.575Z,35.12
2022-12-18T05:03:04.213Z,34.28
2022-12-18T05:05:32.595Z,34.17
2022-12-18T05:08:01.058Z,34.02
2022-12-18T05:10:36.211Z,33.47
2022-12-18T05:13:04.589Z,33.58
2022-12-18T05:15:31.678Z,34.65
2022-12-18T05:17:58.300Z,33.88
2022-12-18T05:20:26.079Z,34.10
2022-12-18T05:22:52.592Z,34.00
2022-12-18T05:25:19.514Z,33.88
2022-12-18T05:27:47.709Z,33.89
2022-12-18T05:30:14.365Z,33.73
2022-12-18T05:32:41.138Z,32.76
2022-12-18T05:35:07.739Z,34.01
2022-12-18T05:37:42.501Z,34.33
2022-12-18T05:40:09.898Z,35.79
2022-12-18T05:42:36.854Z,34.99
2022-12-18T05:45:03.705Z,35.28
2022-12-18T05:47:31.565Z,35.29
2022-12-18T05:50:00.243Z,35.94
2022-12-18T05:52:27.148Z,35.94
2022-12-18T05:54:54.895Z,35.04
2022-12-18T05:57:21.671Z,34.41
2022-12-18T05:59:51.481Z,35.25
2022-12-18T06:02:18.782Z,34.08
2022-12-18T06:04:45.877Z,35.53
2022-12-18T06:07:12.472Z,36.40
2022-12-18T06:09:39.163Z,36.17
2022-12-18T06:12:06.477Z,36.08
2022-12-18T06:14:33.020Z,36.15
2022-12-18T06:17:11.086Z,34.84
2022-12-18T06:19:38.167Z,34.49
2022-12-18T06:22:05.096Z,34.64
2022-12-18T06:24:31.804Z,34.73
2022-12-18T06:26:59.147Z,35.58
2022-12-18T06:29:25.893Z,35.24
2022-12-18T06:32:04.169Z,34.13
2022-12-18T06:40:43.870Z,34.28
2022-12-18T06:43:13.036Z,35.50
2022-12-18T06:46:14.030Z,33.71
2022-12-18T06:48:34.094Z,33.19
2022-12-18T06:57:29.338Z,33.00
2022-12-18T06:59:56.622Z,31.96
2022-12-18T07:02:32.705Z,30.22
2022-12-18T07:05:00.139Z,31.13
2022-12-18T07:07:28.699Z,30.49
2022-12-18T07:09:56.668Z,27.45
2022-12-18T07:12:31.547Z,28.72
2022-12-18T07:15:06.629Z,29.32
2022-12-18T07:17:46.869Z,27.78
2022-12-18T07:20:21.859Z,29.04
2022-12-18T07:34:12.907Z,26.99
2022-12-18T07:36:50.993Z,27.26
2022-12-18T07:39:22.367Z,27.21
2022-12-18T07:41:53.461Z,27.23
2022-12-18T07:47:44.665Z,26.06
2022-12-18T07:50:19.542Z,26.50
2022-12-18T07:52:47.490Z,27.91
2022-12-18T08:07:29.453Z,25.74
2022-12-18T08:10:13.684Z,25.69
2022-12-18T08:47:55.744Z,26.70
2022-12-18T08:50:58.402Z,27.73
2022-12-18T08:53:35.664Z,27.29
2022-12-18T08:56:16.336Z,27.06
2022-12-18T08:58:49.517Z,25.67
2022-12-18T09:01:20.465Z,26.16
2022-12-18T09:03:51.632Z,24.71
2022-12-18T09:06:22.881Z,25.58
2022-12-18T09:08:57.808Z,23.84
2022-12-18T09:11:29.601Z,24.16
2022-12-18T09:13:57.282Z,23.85
2022-12-18T09:19:08.095Z,24.10
2022-12-18T09:21:37.075Z,23.66
2022-12-18T09:24:09.242Z,24.87
2022-12-18T09:26:36.260Z,26.50
2022-12-18T09:29:03.253Z,27.64
2022-12-18T09:31:30.870Z,26.98
2022-12-18T09:36:40.155Z,26.22
2022-12-18T09:39:09.190Z,24.91
2022-12-18T09:41:36.680Z,25.49
2022-12-18T09:44:03.247Z,25.11
2022-12-18T09:46:32.857Z,24.98
2022-12-18T09:48:59.782Z,23.98
2022-12-18T09:51:28.489Z,24.89
2022-12-18T09:54:00.892Z,24.77
2022-12-18T09:59:26.263Z,24.72
2022-12-18T10:01:54.016Z,24.02
2022-12-18T10:04:22.757Z,23.99
2022-12-18T10:06:52.791Z,24.88
2022-12-18T10:12:08.767Z,25.61
2022-12-18T10:14:38.579Z,26.22
2022-12-18T10:17:07.203Z,25.56
2022-12-18T10:22:27.534Z,26.16
2022-12-18T10:24:58.206Z,26.56
2022-12-18T10:27:26.840Z,26.02
2022-12-18T10:29:55.844Z,26.20
2022-12-18T10:32:22.687Z,25.66
2022-12-18T10:34:49.520Z,25.42
2022-12-18T10:37:25.307Z,25.58
2022-12-18T10:42:45.053Z,25.98
2022-12-18T10:45:15.962Z,26.41
2022-12-18T10:51:10.799Z,26.83
2022-12-18T11:08:52.028Z,28.69
2022-12-18T11:11:22.879Z,28.13
2022-12-18T11:13:50.133Z,27.14
2022-12-18T11:16:18.955Z,28.45
2022-12-18T11:18:49.656Z,28.35
2022-12-18T11:21:17.225Z,27.65
2022-12-18T11:23:45.691Z,27.99
2022-12-18T11:26:16.945Z,27.29
2022-12-18T11:28:45.525Z,26.29
2022-12-18T11:31:21.404Z,26.65
2022-12-18T11:34:19.714Z,27.94
2022-12-18T11:36:45.415Z,27.39
2022-12-18T11:39:20.215Z,28.40
2022-12-18T11:41:54.810Z,26.70
2022-12-18T11:44:21.764Z,26.45
2022-12-18T11:46:53.356Z,28.40
2022-12-18T11:49:20.469Z,28.66
2022-12-18T11:51:49.261Z,27.49
2022-12-18T11:54:19.870Z,25.96
2022-12-18T12:02:33.958Z,26.67
2022-12-18T12:05:01.461Z,27.98
2022-12-18T12:07:30.567Z,26.96
2022-12-18T12:09:57.913Z,28.10
2022-12-18T12:12:27.065Z,26.76
2022-12-18T12:15:05.326Z,27.02
2022-12-18T12:17:34.936Z,26.28
2022-12-18T12:22:43.807Z,25.38
2022-12-18T12:25:13.325Z,26.74
2022-12-18T12:27:45.690Z,25.98
2022-12-18T12:30:23.448Z,25.22
2022-12-18T12:32:51.803Z,25.09
2022-12-18T12:35:18.850Z,26.03
2022-12-18T12:37:50.593Z,27.55
2022-12-18T12:43:01.211Z,25.29
2022-12-18T12:45:35.144Z,24.97
2022-12-18T12:48:03.863Z,25.51
2022-12-18T12:50:38.984Z,26.06
2022-12-18T12:53:06.235Z,24.71
2022-12-18T12:55:33.282Z,26.42
2022-12-18T12:58:00.851Z,24.61
2022-12-18T13:00:38.398Z,27.55
2022-12-18T13:03:05.575Z,26.45
2022-12-18T13:05:33.351Z,24.83
2022-12-18T13:08:03.267Z,25.61
2022-12-18T13:10:33.179Z,25.98
2022-12-18T13:13:00.181Z,24.65
2022-12-18T13:15:27.904Z,25.07
2022-12-18T13:18:02.065Z,26.30
2022-12-18T13:20:29.066Z,25.16
2022-12-18T13:22:56.011Z,26.24
2022-12-18T13:25:23.266Z,25.51
2022-12-18T13:27:50.728Z,25.23
2022-12-18T13:30:21.759Z,24.73
2022-12-18T13:32:48.388Z,25.25
2022-12-18T13:38:10.170Z,25.32
2022-12-18T13:40:38.342Z,25.82
2022-12-18T13:43:05.048Z,25.44
2022-12-18T13:45:33.313Z,25.69
2022-12-18T13:48:00.212Z,25.39
2022-12-18T13:50:36.051Z,26.44
2022-12-18T13:53:04.851Z,25.73
2022-12-18T13:55:39.100Z,26.08
2022-12-18T13:58:09.044Z,25.24
2022-12-18T14:00:36.411Z,26.03
2022-12-18T14:03:03.506Z,25.27
2022-12-18T14:05:31.016Z,25.94
2022-12-18T14:08:07.116Z,25.21
2022-12-18T14:10:48.953Z,26.66
2022-12-18T14:13:35.311Z,26.65
2022-12-18T14:16:06.708Z,27.05
2022-12-18T14:18:35.387Z,26.35
2022-12-18T14:21:03.906Z,26.76
2022-12-18T14:23:45.971Z,27.31
2022-12-18T14:29:34.186Z,27.54
2022-12-18T14:32:01.177Z,26.18
2022-12-18T14:40:42.600Z,25.84
2022-12-18T14:46:18.874Z,26.83
2022-12-18T14:48:48.226Z,26.59
2022-12-18T14:51:27.866Z,26.59
2022-12-18T14:57:06.100Z,26.99
2022-12-18T15:05:25.339Z,27.24
2022-12-18T15:07:53.929Z,28.19
2022-12-18T15:10:20.451Z,34.14
2022-12-18T15:12:49.159Z,31.12
2022-12-18T15:15:16.667Z,29.59
2022-12-18T15:17:44.354Z,30.09
2022-12-18T15:20:11.019Z,34.27
2022-12-18T15:22:38.642Z,30.81
2022-12-18T15:31:20.551Z,28.78
2022-12-18T15:34:31.071Z,28.56
2022-12-18T15:37:03.739Z,28.22
2022-12-18T15:45:20.042Z,29.52
2022-12-18T15:48:02.753Z,30.31
2022-12-18T15:50:35.312Z,30.56
2022-12-18T15:55:46.668Z,32.92
2022-12-18T15:58:19.511Z,32.64
2022-12-18T16:00:52.612Z,33.28
2022-12-18T16:03:19.553Z,33.12
2022-12-18T16:05:49.341Z,31.60
2022-12-18T16:08:18.378Z,31.24
2022-12-18T16:10:46.279Z,31.94
2022-12-18T16:13:13.901Z,33.06
2022-12-18T16:15:41.225Z,33.28
2022-12-18T16:18:08.103Z,32.22
2022-12-18T16:20:34.783Z,33.42
2022-12-18T16:23:06.294Z,34.85
2022-12-18T16:25:33.133Z,32.46
2022-12-18T16:28:01.509Z,33.20
2022-12-18T16:30:32.328Z,31.20
2022-12-18T16:33:05.928Z,31.36
2022-12-18T16:35:35.545Z,32.13
2022-12-18T16:38:02.644Z,31.85
2022-12-18T16:40:34.265Z,31.90
2022-12-18T16:43:02.648Z,32.39
2022-12-18T16:45:29.710Z,32.50
2022-12-18T16:47:58.243Z,31.79
2022-12-18T16:50:29.286Z,32.60
2022-12-18T16:52:56.028Z,33.29
2022-12-18T16:55:23.389Z,31.88
2022-12-18T16:57:50.773Z,32.11
2022-12-18T17:00:20.354Z,31.43
2022-12-18T17:02:47.993Z,31.45
2022-12-18T17:05:14.806Z,30.55
2022-12-18T17:07:45.620Z,30.81
2022-12-18T17:10:13.328Z,31.37
2022-12-18T17:12:41.973Z,32.32
2022-12-18T17:15:15.313Z,32.39
2022-12-18T17:17:43.434Z,31.31
2022-12-18T17:20:10.274Z,31.20
2022-12-18T17:22:39.793Z,31.48
2022-12-18T17:25:06.502Z,31.71
2022-12-18T17:27:33.103Z,30.96
2022-12-18T17:33:06.288Z,34.81
2022-12-18T17:38:37.564Z,35.01
2022-12-18T17:41:05.648Z,37.28
2022-12-18T17:46:42.428Z,36.33
2022-12-18T17:49:09.003Z,36.13
2022-12-18T17:51:39.007Z,32.69
2022-12-18T17:54:05.628Z,33.02
2022-12-18T17:56:33.027Z,33.36
2022-12-18T17:58:59.740Z,32.91
2022-12-18T18:01:28.160Z,32.14
2022-12-18T18:03:58.115Z,34.91
2022-12-18T18:06:27.214Z,34.80
2022-12-18T18:54:26.974Z,33.78
2022-12-18T18:57:19.363Z,32.99
2022-12-18T19:10:57.533Z,33.28
2022-12-18T19:19:03.932Z,35.58
2022-12-18T21:26:02.031Z,33.87
2022-12-18T21:28:28.792Z,34.94
2022-12-18T21:43:05.769Z,34.51
2022-12-18T21:45:40.617Z,36.19
2022-12-18T21:48:09.261Z,35.11
2022-12-18T21:50:36.308Z,35.31
2022-12-18T21:53:03.291Z,35.40
2022-12-18T21:55:34.193Z,34.97
2022-12-18T21:58:01.704Z,35.01
2022-12-18T22:00:28.800Z,34.78
2022-12-18T22:03:17.219Z,35.22
2022-12-18T22:05:46.474Z,34.45
2022-12-18T22:08:16.777Z,34.31
2022-12-18T22:10:46.064Z,35.07
2022-12-18T22:13:13.226Z,35.51
2022-12-18T22:15:40.315Z,34.61
2022-12-18T22:18:07.306Z,33.94
2022-12-18T22:20:34.525Z,34.89
2022-12-18T22:23:05.904Z,34.51
2022-12-18T22:25:35.836Z,34.39
2022-12-18T22:28:06.621Z,34.04
2022-12-18T22:30:34.170Z,34.90
2022-12-18T22:33:01.633Z,33.61
2022-12-18T22:35:30.635Z,33.52
2022-12-18T22:37:57.429Z,34.57
2022-12-18T22:40:28.379Z,34.42
2022-12-18T22:42:55.132Z,34.91
2022-12-18T22:45:29.524Z,34.08
2022-12-18T22:47:58.833Z,33.23
2022-12-18T22:50:25.734Z,33.71
2022-12-18T22:52:52.725Z,34.69
2022-12-18T22:55:24.195Z,35.40
2022-12-18T22:58:00.921Z,34.71
2022-12-18T23:00:28.054Z,35.23
2022-12-18T23:03:00.386Z,35.65
2022-12-18T23:05:29.994Z,35.80
2022-12-18T23:08:00.915Z,35.55
2022-12-18T23:10:31.655Z,35.82
2022-12-18T23:13:02.792Z,35.98
2022-12-18T23:15:32.036Z,35.51
2022-12-18T23:17:59.619Z,34.44
2022-12-18T23:20:31.725Z,34.24
2022-12-18T23:23:00.297Z,34.39
2022-12-18T23:25:26.947Z,34.21
2022-12-18T23:27:54.097Z,35.39
2022-12-18T23:30:26.154Z,35.02
2022-12-18T23:32:53.403Z,34.63
2022-12-18T23:35:21.121Z,34.87
2022-12-18T23:37:59.314Z,35.00
2022-12-18T23:40:29.655Z,34.46
2022-12-18T23:42:57.291Z,34.40
2022-12-18T23:45:23.898Z,33.90
2022-12-18T23:47:51.460Z,33.48
2022-12-18T23:50:18.165Z,33.75
2022-12-18T23:52:45.269Z,33.07
2022-12-18T23:55:12.104Z,34.71
2022-12-18T23:57:39.458Z,34.57
